Time;durP1;ratioP1;P1;durP2;ratioP2;P2;SDS_P1;SDS_P2;PMS_P1;PMS_P2;Temp;Humidity;BMP_temperature;BMP_pressure;BME280_temperature;BME280_humidity;BME280_pressure;Samples;Min_cycle;Max_cycle;Signal;HPM_P1;HPM_P2
2023/03/03 05:06:31;;;;;;;18.83;12.68;;;2.10;99.90;;;;;;5011945;28;20211;-69
2023/03/03 05:08:56;;;;;;;28.40;14.50;;;2.20;99.90;;;;;;5016873;28;20530;-69
2023/03/03 05:11:22;;;;;;;29.03;14.47;;;2.20;99.90;;;;;;5017567;28;20182;-69
2023/03/03 05:13:48;;;;;;;26.40;14.93;;;2.30;99.90;;;;;;5016699;28;20206;-69
2023/03/03 05:16:13;;;;;;;25.73;17.03;;;2.30;99.90;;;;;;5017553;28;20169;-69
2023/03/03 05:18:39;;;;;;;22.93;12.80;;;2.30;99.90;;;;;;5017454;28;20174;-68
2023/03/03 05:21:05;;;;;;;19.60;13.30;;;2.30;99.90;;;;;;5017170;28;20217;-68
2023/03/03 05:23:30;;;;;;;23.80;14.80;;;2.30;99.90;;;;;;5016664;28;20646;-70
2023/03/03 05:25:56;;;;;;;19.87;14.33;;;2.40;99.90;;;;;;5017145;28;20483;-68
2023/03/03 05:28:22;;;;;;;20.70;12.67;;;2.40;99.90;;;;;;5017227;28;20174;-68
2023/03/03 05:30:47;;;;;;;19.53;13.67;;;2.50;99.90;;;;;;5016937;28;20228;-69
2023/03/03 05:33:16;;;;;;;20.77;11.77;;;2.50;99.90;;;;;;5016111;28;20944;-69
2023/03/03 05:35:42;;;;;;;20.08;11.32;;;2.50;99.90;;;;;;5015897;28;20203;-69
2023/03/03 05:38:07;;;;;;;25.05;14.02;;;2.50;99.90;;;;;;5016935;28;20195;-69
2023/03/03 05:40:33;;;;;;;25.10;14.77;;;2.50;99.90;;;;;;5015233;28;20226;-68
2023/03/03 05:42:59;;;;;;;24.03;13.83;;;2.60;99.90;;;;;;5014519;28;20181;-69
2023/03/03 05:45:24;;;;;;;19.70;13.50;;;2.60;99.90;;;;;;5016857;28;20205;-68
2023/03/03 05:47:51;;;;;;;19.70;11.87;;;2.60;99.90;;;;;;5016819;28;20417;-69
2023/03/03 05:50:18;;;;;;;19.10;13.13;;;2.70;99.90;;;;;;5015305;28;20194;-69
2023/03/03 05:52:43;;;;;;;25.65;14.05;;;2.70;99.90;;;;;;5016080;28;20511;-69
2023/03/03 05:55:09;;;;;;;21.00;12.33;;;2.70;99.90;;;;;;5016381;28;20197;-69
2023/03/03 05:57:35;;;;;;;22.52;13.50;;;2.80;99.90;;;;;;5016691;28;20416;-68
2023/03/03 06:00:05;;;;;;;22.97;14.43;;;2.70;99.90;;;;;;5016286;28;20191;-70
2023/03/03 06:02:31;;;;;;;19.05;12.98;;;2.70;99.90;;;;;;5013948;28;20182;-68
2023/03/03 06:04:57;;;;;;;24.03;13.10;;;2.70;99.90;;;;;;5016332;28;20190;-69
2023/03/03 06:07:22;;;;;;;22.50;12.00;;;2.70;99.90;;;;;;5016466;28;20175;-70
2023/03/03 06:09:48;;;;;;;20.70;13.20;;;2.70;99.90;;;;;;5016507;28;20171;-68
2023/03/03 06:12:13;;;;;;;22.57;13.27;;;2.80;99.90;;;;;;5015451;28;20175;-69
2023/03/03 06:14:39;;;;;;;32.00;15.07;;;2.80;99.90;;;;;;5008855;28;20202;-69
2023/03/03 06:17:05;;;;;;;28.40;14.00;;;2.80;99.90;;;;;;5015284;28;20285;-68
2023/03/03 06:19:31;;;;;;;27.37;13.90;;;2.80;99.90;;;;;;5014113;28;20178;-68
2023/03/03 06:21:56;;;;;;;22.83;12.82;;;2.80;99.90;;;;;;5002543;28;20183;-68
2023/03/03 06:24:24;;;;;;;26.90;15.77;;;2.80;99.90;;;;;;5007063;28;20187;-67
2023/03/03 06:26:50;;;;;;;21.40;13.20;;;2.80;99.90;;;;;;5014939;28;20166;-70
2023/03/03 06:29:16;;;;;;;25.38;13.75;;;2.70;99.90;;;;;;5018236;28;20191;-71
2023/03/03 06:31:42;;;;;;;16.57;12.20;;;2.70;99.90;;;;;;5016986;28;20171;-67
2023/03/03 06:34:08;;;;;;;20.95;14.05;;;2.70;99.90;;;;;;5016114;28;20194;-68
2023/03/03 06:36:33;;;;;;;25.00;14.33;;;2.80;99.90;;;;;;5014842;28;20179;-71
2023/03/03 06:38:59;;;;;;;23.57;15.07;;;2.80;99.90;;;;;;5018244;28;20753;-69
2023/03/03 06:41:25;;;;;;;26.83;16.05;;;2.80;99.90;;;;;;5002771;28;20289;-66
2023/03/03 06:43:51;;;;;;;23.60;12.70;;;2.80;99.90;;;;;;5005811;28;20195;-67
2023/03/03 06:46:17;;;;;;;22.73;14.53;;;2.80;99.90;;;;;;5008093;28;20181;-68
2023/03/03 06:48:42;;;;;;;23.63;14.67;;;2.80;99.90;;;;;;5007860;28;20205;-67
2023/03/03 06:51:35;;;;;;;19.90;11.90;;;2.90;99.90;;;;;;5015590;28;20170;-68
2023/03/03 06:54:29;;;;;;;22.23;13.73;;;2.90;99.90;;;;;;5015055;28;20245;-68
2023/03/03 06:57:02;;;;;;;22.70;13.10;;;2.90;99.90;;;;;;5002502;28;20190;-68
2023/03/03 06:59:28;;;;;;;21.88;12.35;;;3.00;99.90;;;;;;5015427;28;20170;-66
2023/03/03 07:01:54;;;;;;;22.73;14.87;;;3.00;99.90;;;;;;5015196;28;20230;-65
2023/03/03 07:04:20;;;;;;;15.68;11.70;;;3.00;99.90;;;;;;5014798;28;20187;-67
2023/03/03 07:06:45;;;;;;;20.10;12.20;;;3.10;99.90;;;;;;5013603;28;20641;-67
2023/03/03 07:09:22;;;;;;;22.90;13.47;;;3.10;99.90;;;;;;5014927;28;20178;-67
2023/03/03 07:11:49;;;;;;;20.17;15.13;;;3.00;99.90;;;;;;5015450;28;20179;-68
2023/03/03 07:14:17;;;;;;;22.52;15.80;;;3.10;99.90;;;;;;5014051;28;20195;-68
2023/03/03 07:16:43;;;;;;;25.35;13.43;;;3.10;99.90;;;;;;5015109;28;20190;-67
2023/03/03 07:19:20;;;;;;;22.37;13.77;;;3.20;99.90;;;;;;5014731;28;20187;-68
2023/03/03 07:21:46;;;;;;;20.77;14.77;;;3.30;99.90;;;;;;5029719;28;20232;-67
2023/03/03 07:24:21;;;;;;;27.03;14.53;;;3.30;99.90;;;;;;5013718;28;20186;-67
2023/03/03 07:26:47;;;;;;;22.98;14.27;;;3.40;99.90;;;;;;5014998;28;20197;-69
2023/03/03 07:29:27;;;;;;;21.93;13.23;;;3.50;99.90;;;;;;5014650;28;20207;-68
2023/03/03 07:31:56;;;;;;;21.15;13.77;;;3.50;99.90;;;;;;5014794;28;20197;-68
2023/03/03 07:34:45;;;;;;;16.80;12.15;;;3.60;99.90;;;;;;5010644;28;20202;-68
2023/03/03 07:37:21;;;;;;;22.45;13.65;;;3.60;99.90;;;;;;4998092;28;20178;-68
2023/03/03 07:39:49;;;;;;;19.45;13.88;;;3.60;99.90;;;;;;5014756;28;20178;-68
2023/03/03 07:42:27;;;;;;;28.33;14.52;;;3.80;99.90;;;;;;5014649;28;20257;-68
2023/03/03 07:44:55;;;;;;;20.30;13.27;;;3.90;99.90;;;;;;5005113;28;20215;-68
2023/03/03 07:47:35;;;;;;;23.05;12.20;;;4.00;99.90;;;;;;4999652;28;20257;-69
2023/03/03 07:50:15;;;;;;;17.15;13.00;;;4.00;99.90;;;;;;5013958;28;20196;-69
2023/03/03 07:52:49;;;;;;;17.20;12.00;;;4.10;99.90;;;;;;5010202;28;20179;-68
2023/03/03 07:55:33;;;;;;;19.13;11.35;;;4.30;99.90;;;;;;4994453;28;20593;-67
2023/03/03 07:58:20;;;;;;;21.88;13.27;;;4.40;99.90;;;;;;5001094;28;20697;-67
2023/03/03 08:01:24;;;;;;;17.38;11.88;;;4.40;99.90;;;;;;5004187;28;20205;-69
2023/03/03 08:03:50;;;;;;;19.23;12.65;;;4.50;99.90;;;;;;4997884;28;20189;-70
2023/03/03 08:06:31;;;;;;;16.50;11.25;;;4.60;99.90;;;;;;5014174;28;20265;-69
2023/03/03 08:09:21;;;;;;;15.27;12.00;;;4.70;99.90;;;;;;5014386;28;20162;-68
2023/03/03 08:11:51;;;;;;;18.52;14.05;;;5.00;99.90;;;;;;5003397;28;20264;-69
2023/03/03 08:14:26;;;;;;;18.83;12.45;;;5.80;99.90;;;;;;5004351;28;20238;-66
2023/03/03 08:16:51;;;;;;;16.58;11.18;;;6.80;99.90;;;;;;5001252;28;20170;-68
2023/03/03 08:19:18;;;;;;;13.40;10.30;;;8.00;99.90;;;;;;5004194;28;20176;-70
2023/03/03 08:21:44;;;;;;;13.07;10.80;;;9.00;99.80;;;;;;5001650;28;20194;-68
2023/03/03 08:24:10;;;;;;;17.60;12.87;;;9.90;98.00;;;;;;5003643;28;20870;-68
2023/03/03 08:26:36;;;;;;;17.23;12.03;;;10.80;95.60;;;;;;5002605;28;20503;-67
2023/03/03 08:29:02;;;;;;;17.40;12.20;;;11.40;93.40;;;;;;5003497;28;20175;-67
2023/03/03 08:31:28;;;;;;;17.33;12.57;;;11.90;91.70;;;;;;5003957;28;20234;-68
2023/03/03 08:33:54;;;;;;;22.37;13.37;;;12.40;91.40;;;;;;5000947;28;20285;-69
2023/03/03 08:36:20;;;;;;;19.07;13.70;;;12.90;89.10;;;;;;5002600;28;20411;-71
2023/03/03 08:38:46;;;;;;;15.93;12.87;;;13.10;88.50;;;;;;5013515;28;20437;-69
2023/03/03 08:41:12;;;;;;;19.63;13.27;;;13.40;87.00;;;;;;5013685;28;20969;-70
2023/03/03 08:43:37;;;;;;;16.20;11.93;;;13.60;87.30;;;;;;5012825;28;20720;-69
2023/03/03 08:46:04;;;;;;;18.40;11.93;;;14.10;84.90;;;;;;5013682;28;20414;-68
2023/03/03 08:48:30;;;;;;;21.67;12.97;;;14.50;84.10;;;;;;5013570;28;20178;-70
2023/03/03 08:50:56;;;;;;;16.30;12.30;;;15.10;83.20;;;;;;5013480;28;20420;-69
2023/03/03 08:53:22;;;;;;;18.73;12.90;;;15.40;79.00;;;;;;5013428;28;20400;-69
2023/03/03 08:55:48;;;;;;;16.80;13.83;;;15.50;78.30;;;;;;5012174;28;20237;-69
2023/03/03 08:58:16;;;;;;;16.07;13.00;;;15.40;77.60;;;;;;5013530;28;20413;-72
2023/03/03 09:00:41;;;;;;;17.60;12.90;;;15.30;77.60;;;;;;5006759;28;20461;-64
2023/03/03 09:03:07;;;;;;;19.40;14.30;;;15.10;76.80;;;;;;5002493;28;20429;-67
2023/03/03 09:05:34;;;;;;;17.13;12.93;;;15.00;76.60;;;;;;5002634;28;20208;-67
2023/03/03 09:08:00;;;;;;;17.90;13.10;;;14.30;77.30;;;;;;5003899;28;20431;-67
2023/03/03 09:10:28;;;;;;;21.53;12.50;;;14.00;79.30;;;;;;5022970;28;20512;-69
2023/03/03 09:12:57;;;;;;;18.17;12.00;;;13.80;80.20;;;;;;5013214;28;20866;-68
2023/03/03 09:15:30;;;;;;;18.50;14.03;;;13.50;80.10;;;;;;5012900;28;20492;-68
2023/03/03 09:18:08;;;;;;;20.50;14.13;;;13.00;80.50;;;;;;5013316;28;20387;-64
2023/03/03 09:20:43;;;;;;;20.57;13.60;;;12.40;82.30;;;;;;5013590;28;20547;-64
2023/03/03 09:23:33;;;;;;;19.77;13.43;;;11.80;84.10;;;;;;5012891;28;20568;-65
2023/03/03 09:26:21;;;;;;;16.43;12.47;;;11.40;86.40;;;;;;4992963;28;20427;-68
2023/03/03 09:28:47;;;;;;;16.50;12.40;;;11.20;87.20;;;;;;5013211;28;20398;-68
2023/03/03 09:31:34;;;;;;;18.07;13.13;;;11.30;89.60;;;;;;5013374;28;20410;-68
2023/03/03 09:33:59;;;;;;;17.60;13.03;;;11.70;88.80;;;;;;5008377;28;20460;-67
2023/03/03 09:36:36;;;;;;;22.10;13.27;;;11.80;88.60;;;;;;5003278;28;20425;-69
2023/03/03 09:39:17;;;;;;;19.50;15.20;;;11.50;88.80;;;;;;5003281;28;20538;-68
2023/03/03 09:41:54;;;;;;;20.67;13.53;;;11.20;89.90;;;;;;5002977;28;20458;-68
2023/03/03 09:44:34;;;;;;;22.60;14.63;;;11.10;90.10;;;;;;5002151;28;20803;-68
2023/03/03 09:47:29;;;;;;;18.17;13.03;;;11.00;90.80;;;;;;5001878;28;20419;-68
2023/03/03 09:50:32;;;;;;;21.47;13.07;;;11.30;90.60;;;;;;5005605;28;20479;-69
2023/03/03 09:53:32;;;;;;;19.63;13.73;;;11.20;90.00;;;;;;5016421;28;20414;-68
2023/03/03 09:56:00;;;;;;;20.10;13.47;;;11.10;90.40;;;;;;5010256;28;20500;-67
2023/03/03 09:58:52;;;;;;;19.57;13.50;;;10.50;90.40;;;;;;5004704;28;20418;-66
2023/03/03 10:01:39;;;;;;;25.17;13.97;;;10.40;91.10;;;;;;5010468;28;20456;-68
2023/03/03 10:04:22;;;;;;;20.50;13.10;;;10.40;90.90;;;;;;5005924;28;20438;-67
2023/03/03 10:07:06;;;;;;;20.10;13.90;;;10.40;91.40;;;;;;5012370;28;20442;-69
2023/03/03 10:09:38;;;;;;;21.83;15.00;;;10.50;91.50;;;;;;5016096;28;21012;-68
2023/03/03 10:12:30;;;;;;;16.13;13.27;;;10.70;92.00;;;;;;4996924;28;20406;-68
2023/03/03 10:15:10;;;;;;;19.53;13.90;;;11.10;90.80;;;;;;4999167;28;20803;-67
2023/03/03 10:17:44;;;;;;;18.47;13.67;;;11.00;90.70;;;;;;4996695;28;20436;-66
2023/03/03 10:20:25;;;;;;;18.97;14.17;;;10.90;91.10;;;;;;4996677;28;20535;-66
2023/03/03 10:22:55;;;;;;;24.10;15.13;;;10.70;91.10;;;;;;4997026;28;20426;-67
2023/03/03 10:25:24;;;;;;;20.47;14.27;;;10.50;91.20;;;;;;5004464;28;20838;-68
2023/03/03 10:27:55;;;;;;;25.33;13.63;;;10.40;91.40;;;;;;4996292;28;20438;-68
2023/03/03 10:30:52;;;;;;;25.30;14.27;;;10.30;91.80;;;;;;5008661;28;20423;-68
2023/03/03 10:33:38;;;;;;;17.93;13.70;;;10.30;91.90;;;;;;4995942;28;20414;-66
2023/03/03 10:36:15;;;;;;;18.97;13.80;;;10.50;91.40;;;;;;4975003;28;20923;-66
2023/03/03 10:38:49;;;;;;;20.30;14.77;;;10.60;91.90;;;;;;5004346;28;20414;-66
2023/03/03 10:41:53;;;;;;;24.63;15.07;;;10.70;91.80;;;;;;5004346;28;20456;-67
2023/03/03 10:44:44;;;;;;;18.13;14.03;;;10.90;91.90;;;;;;5005762;28;20421;-67
2023/03/03 10:47:28;;;;;;;20.37;14.60;;;11.00;90.90;;;;;;4999194;28;20403;-67
2023/03/03 10:50:51;;;;;;;22.77;13.77;;;11.00;90.90;;;;;;4995999;28;20406;-67
2023/03/03 10:53:30;;;;;;;20.00;13.87;;;10.80;90.70;;;;;;4973611;28;20540;-66
2023/03/03 10:56:22;;;;;;;22.13;13.87;;;10.80;90.30;;;;;;4973401;28;20447;-67
2023/03/03 10:59:02;;;;;;;23.47;15.87;;;10.80;90.40;;;;;;4972730;28;20499;-64
2023/03/03 11:01:54;;;;;;;19.27;12.33;;;10.80;90.80;;;;;;4973501;28;20548;-68
2023/03/03 11:04:41;;;;;;;19.33;13.30;;;10.70;90.90;;;;;;4943508;28;20455;-68
2023/03/03 11:07:09;;;;;;;22.20;13.70;;;10.60;90.10;;;;;;4973439;28;20435;-68
2023/03/03 11:09:55;;;;;;;22.27;14.70;;;10.50;90.10;;;;;;4973528;28;20946;-68
2023/03/03 11:12:26;;;;;;;15.80;13.00;;;10.50;90.50;;;;;;4952018;28;20775;-67
2023/03/03 11:15:30;;;;;;;19.70;13.60;;;10.70;90.60;;;;;;4972732;28;20421;-66
2023/03/03 11:18:14;;;;;;;19.50;13.50;;;10.70;90.30;;;;;;4934845;29;20814;-68
2023/03/03 11:21:17;;;;;;;17.70;13.90;;;10.60;90.40;;;;;;4934928;29;20480;-67
2023/03/03 11:24:08;;;;;;;16.33;13.33;;;10.60;91.00;;;;;;4978018;28;20762;-69
2023/03/03 11:26:46;;;;;;;16.73;12.40;;;10.60;90.90;;;;;;5004706;28;20426;-70
2023/03/03 11:29:40;;;;;;;21.47;12.83;;;10.50;89.90;;;;;;4995078;28;20413;-69
2023/03/03 11:32:21;;;;;;;19.47;14.87;;;10.20;91.30;;;;;;4995158;28;20764;-70
2023/03/03 11:35:14;;;;;;;21.00;13.33;;;10.00;91.60;;;;;;4997859;28;20445;-71
2023/03/03 11:37:47;;;;;;;18.97;13.57;;;10.00;92.00;;;;;;5014586;28;20764;-71
2023/03/03 11:40:21;;;;;;;18.50;13.90;;;10.00;92.10;;;;;;5014553;28;20509;-71
2023/03/03 11:43:00;;;;;;;19.00;15.00;;;9.80;93.10;;;;;;5014853;28;20486;-69
2023/03/03 11:45:52;;;;;;;20.13;13.37;;;10.00;92.50;;;;;;5005825;28;20480;-71
2023/03/03 11:48:39;;;;;;;18.70;11.90;;;10.10;91.90;;;;;;4999792;28;20429;-69
2023/03/03 11:51:10;;;;;;;18.47;11.90;;;10.30;91.80;;;;;;4994881;28;20464;-69
2023/03/03 11:53:51;;;;;;;17.10;12.20;;;10.30;91.10;;;;;;4994707;28;20780;-69
2023/03/03 11:56:31;;;;;;;18.63;13.17;;;10.40;91.50;;;;;;5009224;28;20432;-69
2023/03/03 11:59:05;;;;;;;19.13;12.90;;;10.60;91.00;;;;;;4995014;28;20756;-70
2023/03/03 12:01:48;;;;;;;16.40;11.63;;;10.80;90.90;;;;;;4994673;28;20460;-71
2023/03/03 12:04:35;;;;;;;16.60;11.57;;;10.90;90.50;;;;;;4994019;28;20428;-71
2023/03/03 12:07:16;;;;;;;19.00;14.23;;;10.80;90.10;;;;;;5002143;28;20443;-71
2023/03/03 12:09:54;;;;;;;15.90;12.30;;;10.70;90.20;;;;;;5011965;28;20948;-71
2023/03/03 12:12:26;;;;;;;17.50;11.70;;;10.60;90.50;;;;;;5012766;28;20494;-71
2023/03/03 12:15:14;;;;;;;15.60;11.10;;;10.50;90.90;;;;;;5011791;28;20484;-71
2023/03/03 12:17:53;;;;;;;19.40;12.00;;;10.40;91.00;;;;;;5011160;28;20936;-69
2023/03/03 12:20:44;;;;;;;16.03;12.00;;;10.30;91.10;;;;;;5013046;28;20458;-71
2023/03/03 12:23:19;;;;;;;16.03;12.30;;;10.30;90.80;;;;;;5012718;28;20440;-72
2023/03/03 12:26:06;;;;;;;15.50;11.10;;;10.30;91.20;;;;;;5011728;28;20438;-69
2023/03/03 12:28:48;;;;;;;13.90;10.43;;;10.30;91.00;;;;;;5011860;28;20829;-70
2023/03/03 12:31:40;;;;;;;12.90;10.07;;;10.40;90.80;;;;;;5011872;28;21001;-67
2023/03/03 12:34:18;;;;;;;19.13;11.60;;;10.30;90.80;;;;;;5010055;28;21132;-68
2023/03/03 12:37:14;;;;;;;16.60;10.20;;;10.10;90.70;;;;;;5011731;28;20411;-71
2023/03/03 12:39:51;;;;;;;14.50;10.47;;;10.10;90.90;;;;;;5013339;28;20915;-72
2023/03/03 12:42:44;;;;;;;13.40;11.93;;;10.10;91.10;;;;;;5013976;28;20442;-68
2023/03/03 12:45:48;;;;;;;16.77;11.02;;;10.10;90.80;;;;;;5013532;28;20936;-69
2023/03/03 12:48:23;;;;;;;11.70;9.10;;;10.00;91.20;;;;;;5013655;28;20184;-70
2023/03/03 12:51:05;;;;;;;13.35;10.05;;;9.90;91.90;;;;;;5013952;28;20421;-71
2023/03/03 12:54:03;;;;;;;12.77;11.07;;;9.90;92.00;;;;;;5013308;28;20183;-71
2023/03/03 12:56:40;;;;;;;16.90;10.52;;;9.90;91.80;;;;;;5004998;28;20187;-70
2023/03/03 12:59:15;;;;;;;10.75;9.60;;;10.00;91.00;;;;;;5013423;28;20347;-69
2023/03/03 13:01:44;;;;;;;14.95;10.63;;;10.00;91.00;;;;;;5013585;28;20223;-71
2023/03/03 13:04:31;;;;;;;14.02;10.23;;;10.10;91.20;;;;;;5011891;28;20199;-70
2023/03/03 13:07:18;;;;;;;12.95;10.43;;;10.10;91.40;;;;;;5013390;28;20190;-69
2023/03/03 13:10:02;;;;;;;13.80;10.68;;;10.20;90.60;;;;;;5014112;28;20504;-70
2023/03/03 13:12:34;;;;;;;16.97;10.83;;;10.20;90.40;;;;;;5013160;28;20175;-70
2023/03/03 13:15:15;;;;;;;14.03;10.67;;;10.20;90.50;;;;;;5012938;28;20426;-70
2023/03/03 13:18:01;;;;;;;14.48;10.98;;;10.20;90.50;;;;;;5013330;28;20733;-71
2023/03/03 13:20:48;;;;;;;12.70;9.53;;;10.30;90.70;;;;;;5013425;28;20206;-71
2023/03/03 13:23:44;;;;;;;16.58;11.95;;;10.30;91.60;;;;;;5014798;28;20829;-72
2023/03/03 13:26:20;;;;;;;12.15;10.88;;;10.40;91.00;;;;;;5017824;28;20237;-70
2023/03/03 13:29:14;;;;;;;15.20;10.90;;;10.40;90.70;;;;;;5017567;28;20165;-72
2023/03/03 13:31:46;;;;;;;11.80;9.98;;;10.40;90.30;;;;;;5017356;28;20171;-72
2023/03/03 13:34:36;;;;;;;14.23;9.50;;;10.40;91.00;;;;;;4996931;28;20207;-69
2023/03/03 13:37:06;;;;;;;14.00;9.80;;;10.50;90.80;;;;;;4997487;28;20171;-70
2023/03/03 13:39:49;;;;;;;14.43;9.65;;;10.50;90.80;;;;;;4997364;28;20539;-71
2023/03/03 13:42:24;;;;;;;12.60;10.00;;;10.50;90.80;;;;;;5001469;28;20180;-70
2023/03/03 13:44:51;;;;;;;14.90;10.57;;;10.60;90.70;;;;;;5015042;28;20473;-72
2023/03/03 13:47:47;;;;;;;18.17;11.63;;;10.60;90.40;;;;;;5016843;28;20402;-70
2023/03/03 13:50:30;;;;;;;11.27;9.53;;;10.60;90.70;;;;;;5017126;28;20177;-70
2023/03/03 13:53:11;;;;;;;14.67;9.57;;;10.60;90.20;;;;;;5016207;28;20502;-71
2023/03/03 13:55:52;;;;;;;12.75;10.55;;;10.60;90.30;;;;;;5015416;28;20428;-70
2023/03/03 13:58:37;;;;;;;13.05;9.70;;;10.60;90.10;;;;;;5016727;28;20172;-70
2023/03/03 14:01:15;;;;;;;15.03;10.00;;;10.60;90.00;;;;;;5016592;28;20241;-71
2023/03/03 14:03:45;;;;;;;15.97;11.50;;;10.60;90.00;;;;;;5015963;28;20449;-70
2023/03/03 14:06:15;;;;;;;12.43;9.40;;;10.60;90.20;;;;;;5016295;28;20426;-68
2023/03/03 14:09:11;;;;;;;12.80;10.07;;;10.60;90.30;;;;;;5016516;28;20763;-71
2023/03/03 14:11:55;;;;;;;13.63;10.40;;;10.60;90.20;;;;;;5016231;28;20758;-70
2023/03/03 14:14:27;;;;;;;17.93;11.00;;;10.60;90.00;;;;;;4996478;28;20206;-68
2023/03/03 14:17:15;;;;;;;16.80;11.93;;;10.60;90.20;;;;;;4996958;28;20391;-70
2023/03/03 14:19:41;;;;;;;13.43;10.75;;;10.60;90.40;;;;;;4996628;28;20185;-71
2023/03/03 14:22:40;;;;;;;15.97;11.07;;;10.50;90.80;;;;;;4998749;28;20210;-71
2023/03/03 14:25:12;;;;;;;15.45;10.82;;;10.50;90.50;;;;;;5015831;28;20187;-69
2023/03/03 14:27:46;;;;;;;13.50;10.93;;;10.40;90.10;;;;;;5016331;28;20535;-67
2023/03/03 14:30:21;;;;;;;16.73;11.82;;;10.40;90.90;;;;;;5016092;28;20419;-70
2023/03/03 14:33:08;;;;;;;14.57;10.95;;;10.40;90.90;;;;;;5015265;28;20181;-68
2023/03/03 14:35:42;;;;;;;14.10;11.10;;;10.40;90.50;;;;;;5016056;28;20613;-72
2023/03/03 14:38:14;;;;;;;14.65;9.60;;;10.40;90.70;;;;;;5015797;28;20414;-70
2023/03/03 14:40:44;;;;;;;16.73;10.98;;;10.40;90.90;;;;;;5008981;28;20201;-69
2023/03/03 14:43:36;;;;;;;13.35;10.27;;;10.50;90.30;;;;;;5014949;28;20175;-70
2023/03/03 14:46:39;;;;;;;15.65;10.82;;;10.40;90.10;;;;;;5015923;28;20172;-70
2023/03/03 14:49:31;;;;;;;12.48;9.50;;;10.40;90.20;;;;;;5015653;28;20168;-73
2023/03/03 14:52:21;;;;;;;12.45;9.85;;;10.40;90.30;;;;;;5015434;28;20182;-70
2023/03/03 14:54:56;;;;;;;12.65;8.63;;;10.40;90.50;;;;;;5015247;28;20198;-71
2023/03/03 14:57:47;;;;;;;14.98;10.70;;;10.40;90.70;;;;;;5015609;28;20171;-69
2023/03/03 15:00:13;;;;;;;10.02;9.00;;;10.40;90.50;;;;;;5015551;28;20285;-71
2023/03/03 15:02:51;;;;;;;14.35;10.65;;;10.40;90.90;;;;;;5013864;28;20179;-69
2023/03/03 15:05:27;;;;;;;14.70;11.13;;;10.40;90.80;;;;;;5014913;28;20204;-69
2023/03/03 15:08:04;;;;;;;18.73;13.05;;;10.40;90.60;;;;;;5015472;28;20218;-70
2023/03/03 15:10:34;;;;;;;14.60;10.50;;;10.40;90.50;;;;;;5015548;28;20171;-69
2023/03/03 15:13:18;;;;;;;16.27;9.43;;;10.40;90.20;;;;;;5015007;28;20545;-72
2023/03/03 15:15:59;;;;;;;12.95;10.05;;;10.40;90.30;;;;;;5015425;28;20199;-70
2023/03/03 15:18:33;;;;;;;16.45;11.10;;;10.30;90.50;;;;;;5015115;28;20196;-71
2023/03/03 15:21:05;;;;;;;14.60;9.73;;;10.30;90.40;;;;;;5015221;28;20234;-70
2023/03/03 15:24:02;;;;;;;18.70;11.57;;;10.30;90.50;;;;;;5030098;28;20457;-69
2023/03/03 15:26:55;;;;;;;15.32;9.77;;;10.20;90.60;;;;;;5015179;28;20267;-71
2023/03/03 15:29:57;;;;;;;16.58;10.10;;;10.10;90.50;;;;;;5015175;28;20167;-71
2023/03/03 15:32:34;;;;;;;15.30;12.20;;;10.20;90.80;;;;;;5015744;28;20203;-69
2023/03/03 15:35:11;;;;;;;12.65;9.73;;;10.10;90.80;;;;;;5014463;28;20189;-67
2023/03/03 15:37:52;;;;;;;13.48;9.35;;;10.10;90.80;;;;;;5014748;28;20516;-71
2023/03/03 15:40:24;;;;;;;12.68;9.75;;;10.10;90.80;;;;;;5013381;28;20228;-70
2023/03/03 15:43:21;;;;;;;15.70;11.13;;;10.10;91.00;;;;;;5014115;28;20180;-69
2023/03/03 15:46:15;;;;;;;18.63;10.52;;;10.10;91.00;;;;;;5013669;28;20202;-68
2023/03/03 15:49:27;;;;;;;16.50;9.63;;;10.10;91.10;;;;;;5004540;28;20551;-70
2023/03/03 15:52:21;;;;;;;15.93;10.90;;;10.10;91.00;;;;;;5029659;28;20534;-69
2023/03/03 15:55:17;;;;;;;15.38;8.77;;;10.10;91.10;;;;;;5014067;28;20220;-69
2023/03/03 15:58:04;;;;;;;12.35;9.38;;;10.00;91.10;;;;;;5014586;28;20229;-67
2023/03/03 16:01:09;;;;;;;12.50;9.10;;;10.00;91.00;;;;;;5014561;28;20249;-70
2023/03/03 16:03:44;;;;;;;13.55;10.23;;;10.00;91.20;;;;;;5013911;28;20179;-69
2023/03/03 16:06:45;;;;;;;11.68;8.55;;;9.90;91.90;;;;;;5014141;28;20187;-69
2023/03/03 16:09:42;;;;;;;15.77;11.50;;;9.80;92.10;;;;;;5014472;28;20535;-70
2023/03/03 16:12:24;;;;;;;16.63;11.60;;;9.70;92.20;;;;;;5014357;28;20217;-69
2023/03/03 16:15:50;;;;;;;18.08;10.65;;;9.70;92.40;;;;;;4994024;28;20223;-69
2023/03/03 16:18:48;;;;;;;19.38;9.90;;;9.60;92.50;;;;;;4969199;28;20284;-71
2023/03/03 16:21:37;;;;;;;17.17;10.48;;;9.50;92.70;;;;;;4942682;28;20319;-69
2023/03/03 16:24:16;;;;;;;14.85;10.43;;;9.40;92.60;;;;;;5006749;28;20199;-64
2023/03/03 16:27:04;;;;;;;17.92;10.23;;;9.40;92.80;;;;;;5009598;28;20179;-64
2023/03/03 16:30:08;;;;;;;16.80;10.98;;;9.30;92.90;;;;;;5011556;28;20700;-64
2023/03/03 16:32:52;;;;;;;14.52;10.05;;;9.20;93.20;;;;;;4978535;28;20242;-70
2023/03/03 16:35:28;;;;;;;17.63;11.55;;;9.20;93.30;;;;;;4999707;28;20194;-69
2023/03/03 16:38:04;;;;;;;16.92;11.70;;;9.00;93.50;;;;;;5013225;28;20178;-72
2023/03/03 16:40:59;;;;;;;14.18;9.77;;;9.00;93.50;;;;;;5012148;28;20206;-69
2023/03/03 16:43:33;;;;;;;13.95;9.68;;;8.90;93.60;;;;;;5012917;28;20244;-70
2023/03/03 16:46:16;;;;;;;17.48;10.02;;;8.80;93.80;;;;;;5013391;28;20170;-67
2023/03/03 16:49:20;;;;;;;12.80;9.00;;;8.80;93.80;;;;;;5028430;28;20531;-66
2023/03/03 16:51:59;;;;;;;14.73;10.18;;;8.70;94.00;;;;;;5013307;28;20182;-68
2023/03/03 16:55:17;;;;;;;14.38;9.82;;;8.60;94.20;;;;;;5011089;28;20562;-68
2023/03/03 16:58:03;;;;;;;17.70;11.43;;;8.50;94.30;;;;;;5001411;28;20198;-68
2023/03/03 17:00:36;;;;;;;18.02;10.38;;;8.40;94.60;;;;;;5013391;28;20279;-69
2023/03/03 17:03:40;;;;;;;18.25;10.85;;;8.30;94.60;;;;;;5013043;28;20175;-69
2023/03/03 17:06:21;;;;;;;14.75;10.82;;;8.30;94.60;;;;;;4982730;28;20205;-70
2023/03/03 17:09:18;;;;;;;16.65;9.65;;;8.20;94.70;;;;;;4992295;28;20175;-69
2023/03/03 17:12:07;;;;;;;17.20;11.60;;;8.10;94.80;;;;;;4991805;28;20558;-68
2023/03/03 17:14:46;;;;;;;23.45;12.98;;;8.00;95.10;;;;;;5011798;28;20208;-68
2023/03/03 17:17:54;;;;;;;15.02;10.20;;;7.90;95.60;;;;;;5007594;28;20178;-69
2023/03/03 17:20:24;;;;;;;18.27;12.10;;;7.80;95.70;;;;;;4991814;28;20221;-69
2023/03/03 17:22:59;;;;;;;17.85;9.68;;;7.70;96.00;;;;;;5011494;28;20182;-71
2023/03/03 17:25:28;;;;;;;16.73;10.57;;;7.70;96.00;;;;;;4993329;28;20189;-67
2023/03/03 17:28:03;;;;;;;13.65;10.10;;;7.70;96.00;;;;;;5001970;28;20181;-70
2023/03/03 17:30:37;;;;;;;24.73;11.82;;;7.60;95.90;;;;;;5004111;28;20181;-69
2023/03/03 17:33:28;;;;;;;22.70;11.15;;;7.50;95.90;;;;;;5001931;28;20178;-67
2023/03/03 17:36:21;;;;;;;14.48;9.73;;;7.50;96.10;;;;;;5002298;28;20199;-72
2023/03/03 17:39:15;;;;;;;16.58;10.13;;;7.40;96.10;;;;;;4988939;28;20528;-69
2023/03/03 17:42:01;;;;;;;18.40;11.73;;;7.30;96.70;;;;;;5001424;28;20197;-66
2023/03/03 17:44:54;;;;;;;20.33;11.85;;;7.20;96.80;;;;;;5004176;28;20211;-69
2023/03/03 17:47:39;;;;;;;17.50;11.20;;;7.20;96.90;;;;;;5001423;28;20182;-71
2023/03/03 17:50:42;;;;;;;14.73;8.98;;;7.10;97.00;;;;;;5000091;28;20532;-70
2023/03/03 17:53:26;;;;;;;15.52;9.63;;;7.10;97.40;;;;;;5003034;28;20269;-70
2023/03/03 17:56:06;;;;;;;16.38;11.02;;;7.00;97.70;;;;;;5002323;28;20614;-70
2023/03/03 17:58:41;;;;;;;19.85;11.25;;;6.90;97.80;;;;;;5004258;28;20171;-70
2023/03/03 18:01:18;;;;;;;19.75;11.68;;;6.90;98.10;;;;;;4996845;28;20657;-68
2023/03/03 18:03:50;;;;;;;17.38;11.38;;;6.80;98.30;;;;;;5008561;28;20575;-69
2023/03/03 18:06:15;;;;;;;14.55;8.95;;;6.80;98.40;;;;;;4997575;28;20520;-68
2023/03/03 18:09:12;;;;;;;22.17;13.30;;;6.80;98.20;;;;;;5014105;28;20237;-69
2023/03/03 18:11:56;;;;;;;17.90;12.00;;;6.80;98.30;;;;;;5006574;28;20224;-69
2023/03/03 18:14:42;;;;;;;19.10;13.48;;;6.80;98.40;;;;;;5014794;28;20656;-72
2023/03/03 18:17:40;;;;;;;17.10;10.73;;;6.70;98.60;;;;;;5004356;28;20180;-71
2023/03/03 18:20:33;;;;;;;17.02;11.65;;;6.60;98.60;;;;;;5014307;28;20270;-69
2023/03/03 18:23:32;;;;;;;15.60;9.70;;;6.60;98.60;;;;;;5014333;28;20183;-69
2023/03/03 18:26:08;;;;;;;13.60;12.02;;;6.50;98.60;;;;;;5007490;28;20180;-66
2023/03/03 18:28:49;;;;;;;20.50;12.88;;;6.50;98.70;;;;;;5015741;28;20245;-66
2023/03/03 18:31:23;;;;;;;17.13;11.60;;;6.40;99.00;;;;;;5007474;28;20181;-68
2023/03/03 18:34:05;;;;;;;13.73;10.43;;;6.30;99.10;;;;;;5009105;28;20236;-68
2023/03/03 18:36:30;;;;;;;19.40;10.85;;;6.30;99.40;;;;;;5014703;28;20645;-68
2023/03/03 18:38:59;;;;;;;18.63;13.97;;;6.30;99.50;;;;;;5011252;28;20256;-69